sensor_id;sensor_type;location;lat;lon;timestamp;P1;durP1;ratioP1;P2;durP2;ratioP2
2656;SDS011;1338;48.176;11.792;2023-07-08T00:00:29;6.10;;;5.50;;
2656;SDS011;1338;48.176;11.792;2023-07-08T00:02:57;5.90;;;5.10;;
2656;SDS011;1338;48.176;11.792;2023-07-08T00:05:26;5.70;;;5.10;;
2656;SDS011;1338;48.176;11.792;2023-07-08T00:07:55;5.90;;;4.80;;
2656;SDS011;1338;48.176;11.792;2023-07-08T00:10:24;5.60;;;5.10;;
2656;SDS011;1338;48.176;11.792;2023-07-08T00:12:55;6.17;;;5.27;;
2656;SDS011;1338;48.176;11.792;2023-07-08T00:15:27;5.80;;;5.17;;
2656;SDS011;1338;48.176;11.792;2023-07-08T00:17:57;5.27;;;4.70;;
2656;SDS011;1338;48.176;11.792;2023-07-08T00:20:27;4.87;;;4.37;;
2656;SDS011;1338;48.176;11.792;2023-07-08T00:23:00;5.50;;;4.90;;
2656;SDS011;1338;48.176;11.792;2023-07-08T00:25:29;7.00;;;5.53;;
2656;SDS011;1338;48.176;11.792;2023-07-08T00:27:59;5.47;;;4.70;;
2656;SDS011;1338;48.176;11.792;2023-07-08T00:30:30;5.33;;;4.83;;
2656;SDS011;1338;48.176;11.792;2023-07-08T00:33:01;6.60;;;5.53;;
2656;SDS011;1338;48.176;11.792;2023-07-08T00:35:30;5.53;;;4.90;;
2656;SDS011;1338;48.176;11.792;2023-07-08T00:38:01;5.43;;;4.93;;
2656;SDS011;1338;48.176;11.792;2023-07-08T00:40:36;5.23;;;4.60;;
2656;SDS011;1338;48.176;11.792;2023-07-08T00:43:06;5.60;;;5.10;;
2656;SDS011;1338;48.176;11.792;2023-07-08T00:45:40;6.27;;;5.43;;
2656;SDS011;1338;48.176;11.792;2023-07-08T00:48:29;5.47;;;4.97;;
2656;SDS011;1338;48.176;11.792;2023-07-08T00:51:01;5.47;;;4.87;;
2656;SDS011;1338;48.176;11.792;2023-07-08T00:53:31;6.50;;;5.80;;
2656;SDS011;1338;48.176;11.792;2023-07-08T00:56:02;5.87;;;5.30;;
2656;SDS011;1338;48.176;11.792;2023-07-08T00:58:37;5.63;;;5.03;;
2656;SDS011;1338;48.176;11.792;2023-07-08T01:01:11;6.97;;;5.83;;
2656;SDS011;1338;48.176;11.792;2023-07-08T01:03:43;5.40;;;4.90;;
2656;SDS011;1338;48.176;11.792;2023-07-08T01:06:17;6.33;;;5.47;;
2656;SDS011;1338;48.176;11.792;2023-07-08T01:08:49;6.97;;;4.87;;
2656;SDS011;1338;48.176;11.792;2023-07-08T01:11:20;6.03;;;5.40;;
2656;SDS011;1338;48.176;11.792;2023-07-08T01:13:49;5.90;;;5.33;;
2656;SDS011;1338;48.176;11.792;2023-07-08T01:16:21;5.80;;;5.30;;
2656;SDS011;1338;48.176;11.792;2023-07-08T01:18:50;7.10;;;6.40;;
2656;SDS011;1338;48.176;11.792;2023-07-08T01:21:28;7.00;;;6.30;;
2656;SDS011;1338;48.176;11.792;2023-07-08T01:24:02;6.10;;;5.50;;
2656;SDS011;1338;48.176;11.792;2023-07-08T01:26:35;6.13;;;5.50;;
2656;SDS011;1338;48.176;11.792;2023-07-08T01:29:07;5.97;;;5.37;;
2656;SDS011;1338;48.176;11.792;2023-07-08T01:31:36;6.27;;;5.53;;
2656;SDS011;1338;48.176;11.792;2023-07-08T01:34:07;6.60;;;6.00;;
2656;SDS011;1338;48.176;11.792;2023-07-08T01:36:39;7.50;;;6.00;;
2656;SDS011;1338;48.176;11.792;2023-07-08T01:39:14;7.87;;;6.60;;
2656;SDS011;1338;48.176;11.792;2023-07-08T01:41:46;7.10;;;6.40;;
2656;SDS011;1338;48.176;11.792;2023-07-08T01:44:22;8.50;;;6.93;;
2656;SDS011;1338;48.176;11.792;2023-07-08T01:46:56;7.77;;;6.87;;
2656;SDS011;1338;48.176;11.792;2023-07-08T01:49:28;7.40;;;6.13;;
2656;SDS011;1338;48.176;11.792;2023-07-08T01:51:58;6.83;;;6.23;;
2656;SDS011;1338;48.176;11.792;2023-07-08T01:54:28;6.10;;;5.60;;
2656;SDS011;1338;48.176;11.792;2023-07-08T01:56:57;7.17;;;6.40;;
2656;SDS011;1338;48.176;11.792;2023-07-08T01:59:27;6.33;;;5.67;;
2656;SDS011;1338;48.176;11.792;2023-07-08T02:01:57;6.87;;;6.10;;
2656;SDS011;1338;48.176;11.792;2023-07-08T02:04:26;7.00;;;6.33;;
2656;SDS011;1338;48.176;11.792;2023-07-08T02:06:57;10.00;;;7.27;;
2656;SDS011;1338;48.176;11.792;2023-07-08T02:09:29;7.73;;;6.43;;
2656;SDS011;1338;48.176;11.792;2023-07-08T02:11:57;6.87;;;6.17;;
2656;SDS011;1338;48.176;11.792;2023-07-08T02:14:26;6.47;;;5.80;;
2656;SDS011;1338;48.176;11.792;2023-07-08T02:16:54;7.47;;;6.20;;
2656;SDS011;1338;48.176;11.792;2023-07-08T02:19:23;7.80;;;6.50;;
2656;SDS011;1338;48.176;11.792;2023-07-08T02:21:54;7.37;;;6.47;;
2656;SDS011;1338;48.176;11.792;2023-07-08T02:24:23;7.80;;;7.00;;
2656;SDS011;1338;48.176;11.792;2023-07-08T02:26:53;7.50;;;6.70;;
2656;SDS011;1338;48.176;11.792;2023-07-08T02:29:22;6.90;;;6.20;;
2656;SDS011;1338;48.176;11.792;2023-07-08T02:31:50;7.87;;;6.47;;
2656;SDS011;1338;48.176;11.792;2023-07-08T02:34:19;7.43;;;6.73;;
2656;SDS011;1338;48.176;11.792;2023-07-08T02:36:50;8.23;;;7.43;;
2656;SDS011;1338;48.176;11.792;2023-07-08T02:39:19;6.47;;;5.87;;
2656;SDS011;1338;48.176;11.792;2023-07-08T02:41:47;7.87;;;7.07;;
2656;SDS011;1338;48.176;11.792;2023-07-08T02:44:18;7.50;;;6.80;;
2656;SDS011;1338;48.176;11.792;2023-07-08T02:46:46;7.13;;;6.03;;
2656;SDS011;1338;48.176;11.792;2023-07-08T02:49:15;8.67;;;6.87;;
2656;SDS011;1338;48.176;11.792;2023-07-08T02:51:44;7.40;;;6.70;;
2656;SDS011;1338;48.176;11.792;2023-07-08T02:54:13;8.03;;;7.10;;
2656;SDS011;1338;48.176;11.792;2023-07-08T02:56:41;9.43;;;7.33;;
2656;SDS011;1338;48.176;11.792;2023-07-08T02:59:10;6.17;;;5.60;;
2656;SDS011;1338;48.176;11.792;2023-07-08T03:01:40;6.70;;;6.10;;
2656;SDS011;1338;48.176;11.792;2023-07-08T03:04:10;7.13;;;6.43;;
2656;SDS011;1338;48.176;11.792;2023-07-08T03:06:40;8.93;;;6.80;;
2656;SDS011;1338;48.176;11.792;2023-07-08T03:09:09;8.13;;;6.80;;
2656;SDS011;1338;48.176;11.792;2023-07-08T03:11:40;7.50;;;6.80;;
2656;SDS011;1338;48.176;11.792;2023-07-08T03:14:08;6.53;;;5.83;;
2656;SDS011;1338;48.176;11.792;2023-07-08T03:16:37;7.23;;;6.50;;
2656;SDS011;1338;48.176;11.792;2023-07-08T03:19:11;6.87;;;6.17;;
2656;SDS011;1338;48.176;11.792;2023-07-08T03:21:41;7.77;;;6.50;;
2656;SDS011;1338;48.176;11.792;2023-07-08T03:24:10;6.53;;;5.83;;
2656;SDS011;1338;48.176;11.792;2023-07-08T03:26:43;7.80;;;7.00;;
2656;SDS011;1338;48.176;11.792;2023-07-08T03:29:14;6.70;;;6.00;;
2656;SDS011;1338;48.176;11.792;2023-07-08T03:31:47;7.23;;;6.03;;
2656;SDS011;1338;48.176;11.792;2023-07-08T03:34:16;7.00;;;6.30;;
2656;SDS011;1338;48.176;11.792;2023-07-08T03:36:47;7.03;;;6.27;;
2656;SDS011;1338;48.176;11.792;2023-07-08T03:39:18;6.40;;;5.80;;
2656;SDS011;1338;48.176;11.792;2023-07-08T03:41:48;7.37;;;6.57;;
2656;SDS011;1338;48.176;11.792;2023-07-08T03:44:19;7.73;;;6.80;;
2656;SDS011;1338;48.176;11.792;2023-07-08T03:46:52;7.10;;;6.30;;
2656;SDS011;1338;48.176;11.792;2023-07-08T03:49:21;6.73;;;5.93;;
2656;SDS011;1338;48.176;11.792;2023-07-08T03:51:53;7.07;;;6.37;;
2656;SDS011;1338;48.176;11.792;2023-07-08T03:54:23;7.73;;;6.13;;
2656;SDS011;1338;48.176;11.792;2023-07-08T03:56:56;6.10;;;5.43;;
2656;SDS011;1338;48.176;11.792;2023-07-08T03:59:26;6.77;;;5.70;;
2656;SDS011;1338;48.176;11.792;2023-07-08T04:01:58;6.80;;;6.00;;
2656;SDS011;1338;48.176;11.792;2023-07-08T04:04:28;7.50;;;6.60;;
2656;SDS011;1338;48.176;11.792;2023-07-08T04:06:56;8.00;;;6.10;;
2656;SDS011;1338;48.176;11.792;2023-07-08T04:09:25;6.67;;;5.77;;
2656;SDS011;1338;48.176;11.792;2023-07-08T04:11:54;6.03;;;5.40;;
2656;SDS011;1338;48.176;11.792;2023-07-08T04:14:22;6.93;;;6.20;;
2656;SDS011;1338;48.176;11.792;2023-07-08T04:16:51;6.80;;;6.10;;
2656;SDS011;1338;48.176;11.792;2023-07-08T04:19:25;6.53;;;5.93;;
2656;SDS011;1338;48.176;11.792;2023-07-08T04:21:54;7.43;;;6.63;;
2656;SDS011;1338;48.176;11.792;2023-07-08T04:24:23;8.07;;;7.17;;
2656;SDS011;1338;48.176;11.792;2023-07-08T04:26:55;7.20;;;6.50;;
2656;SDS011;1338;48.176;11.792;2023-07-08T04:29:23;9.07;;;6.63;;
2656;SDS011;1338;48.176;11.792;2023-07-08T04:31:52;9.60;;;6.80;;
2656;SDS011;1338;48.176;11.792;2023-07-08T04:34:24;6.33;;;5.73;;
2656;SDS011;1338;48.176;11.792;2023-07-08T04:36:55;8.60;;;6.23;;
2656;SDS011;1338;48.176;11.792;2023-07-08T04:39:23;7.90;;;7.07;;
2656;SDS011;1338;48.176;11.792;2023-07-08T04:41:52;7.33;;;6.53;;
2656;SDS011;1338;48.176;11.792;2023-07-08T04:44:23;9.03;;;7.30;;
2656;SDS011;1338;48.176;11.792;2023-07-08T04:46:52;8.20;;;7.40;;
2656;SDS011;1338;48.176;11.792;2023-07-08T04:49:26;8.63;;;7.60;;
2656;SDS011;1338;48.176;11.792;2023-07-08T04:51:58;8.30;;;7.10;;
2656;SDS011;1338;48.176;11.792;2023-07-08T04:54:28;9.00;;;8.10;;
2656;SDS011;1338;48.176;11.792;2023-07-08T04:56:57;8.27;;;7.47;;
2656;SDS011;1338;48.176;11.792;2023-07-08T04:59:25;7.80;;;7.00;;
2656;SDS011;1338;48.176;11.792;2023-07-08T05:01:55;8.00;;;7.17;;
2656;SDS011;1338;48.176;11.792;2023-07-08T05:04:24;7.90;;;7.00;;
2656;SDS011;1338;48.176;11.792;2023-07-08T05:06:54;8.73;;;7.83;;
2656;SDS011;1338;48.176;11.792;2023-07-08T05:09:22;8.17;;;7.03;;
2656;SDS011;1338;48.176;11.792;2023-07-08T05:11:52;7.90;;;7.10;;
2656;SDS011;1338;48.176;11.792;2023-07-08T05:14:21;9.33;;;7.73;;
2656;SDS011;1338;48.176;11.792;2023-07-08T05:16:50;8.97;;;7.33;;
2656;SDS011;1338;48.176;11.792;2023-07-08T05:19:18;9.83;;;8.00;;
2656;SDS011;1338;48.176;11.792;2023-07-08T05:21:49;9.07;;;7.30;;
2656;SDS011;1338;48.176;11.792;2023-07-08T05:24:20;7.80;;;6.60;;
2656;SDS011;1338;48.176;11.792;2023-07-08T05:26:48;7.33;;;6.63;;
2656;SDS011;1338;48.176;11.792;2023-07-08T05:29:16;9.37;;;7.30;;
2656;SDS011;1338;48.176;11.792;2023-07-08T05:31:44;7.67;;;6.03;;
2656;SDS011;1338;48.176;11.792;2023-07-08T05:34:14;7.30;;;6.60;;
2656;SDS011;1338;48.176;11.792;2023-07-08T05:36:43;8.40;;;7.10;;
2656;SDS011;1338;48.176;11.792;2023-07-08T05:39:13;8.47;;;7.63;;
2656;SDS011;1338;48.176;11.792;2023-07-08T05:41:42;9.17;;;7.70;;
2656;SDS011;1338;48.176;11.792;2023-07-08T05:44:10;7.83;;;7.13;;
2656;SDS011;1338;48.176;11.792;2023-07-08T05:46:39;9.00;;;8.20;;
2656;SDS011;1338;48.176;11.792;2023-07-08T05:49:07;8.93;;;7.83;;
2656;SDS011;1338;48.176;11.792;2023-07-08T05:51:36;11.13;;;7.63;;
2656;SDS011;1338;48.176;11.792;2023-07-08T05:54:04;8.30;;;7.50;;
2656;SDS011;1338;48.176;11.792;2023-07-08T05:56:34;7.47;;;6.70;;
2656;SDS011;1338;48.176;11.792;2023-07-08T05:59:03;8.50;;;7.50;;
2656;SDS011;1338;48.176;11.792;2023-07-08T06:01:32;7.67;;;6.90;;
2656;SDS011;1338;48.176;11.792;2023-07-08T06:04:01;8.20;;;6.93;;
2656;SDS011;1338;48.176;11.792;2023-07-08T06:06:31;6.80;;;6.10;;
2656;SDS011;1338;48.176;11.792;2023-07-08T06:09:00;8.47;;;6.70;;
2656;SDS011;1338;48.176;11.792;2023-07-08T06:11:28;6.43;;;5.57;;
2656;SDS011;1338;48.176;11.792;2023-07-08T06:14:00;7.00;;;6.33;;
2656;SDS011;1338;48.176;11.792;2023-07-08T06:16:29;6.87;;;6.23;;
2656;SDS011;1338;48.176;11.792;2023-07-08T06:19:07;5.93;;;5.43;;
2656;SDS011;1338;48.176;11.792;2023-07-08T06:21:36;9.90;;;7.17;;
2656;SDS011;1338;48.176;11.792;2023-07-08T06:24:05;7.27;;;6.57;;
2656;SDS011;1338;48.176;11.792;2023-07-08T06:26:34;6.37;;;5.77;;
2656;SDS011;1338;48.176;11.792;2023-07-08T06:29:04;8.97;;;7.23;;
2656;SDS011;1338;48.176;11.792;2023-07-08T06:31:33;7.70;;;6.27;;
2656;SDS011;1338;48.176;11.792;2023-07-08T06:34:01;8.00;;;7.17;;
2656;SDS011;1338;48.176;11.792;2023-07-08T06:36:31;8.20;;;6.40;;
2656;SDS011;1338;48.176;11.792;2023-07-08T06:38:59;8.30;;;6.87;;
2656;SDS011;1338;48.176;11.792;2023-07-08T06:41:27;7.67;;;6.10;;
2656;SDS011;1338;48.176;11.792;2023-07-08T06:43:55;8.40;;;6.47;;
2656;SDS011;1338;48.176;11.792;2023-07-08T06:46:29;6.50;;;5.70;;
2656;SDS011;1338;48.176;11.792;2023-07-08T06:48:58;6.87;;;5.80;;
2656;SDS011;1338;48.176;11.792;2023-07-08T06:51:27;7.63;;;6.50;;
2656;SDS011;1338;48.176;11.792;2023-07-08T06:53:56;6.60;;;5.63;;
2656;SDS011;1338;48.176;11.792;2023-07-08T06:56:24;6.90;;;5.77;;
2656;SDS011;1338;48.176;11.792;2023-07-08T06:58:53;6.13;;;5.53;;
2656;SDS011;1338;48.176;11.792;2023-07-08T07:01:21;6.77;;;6.03;;
2656;SDS011;1338;48.176;11.792;2023-07-08T07:03:52;6.83;;;6.13;;
2656;SDS011;1338;48.176;11.792;2023-07-08T07:06:21;7.40;;;6.60;;
2656;SDS011;1338;48.176;11.792;2023-07-08T07:08:49;9.63;;;6.80;;
2656;SDS011;1338;48.176;11.792;2023-07-08T07:11:18;7.53;;;6.00;;
2656;SDS011;1338;48.176;11.792;2023-07-08T07:13:47;9.87;;;7.03;;
2656;SDS011;1338;48.176;11.792;2023-07-08T07:16:16;7.50;;;6.70;;
2656;SDS011;1338;48.176;11.792;2023-07-08T07:18:47;10.97;;;7.60;;
2656;SDS011;1338;48.176;11.792;2023-07-08T07:21:17;8.47;;;6.60;;
2656;SDS011;1338;48.176;11.792;2023-07-08T07:23:46;7.03;;;5.60;;
2656;SDS011;1338;48.176;11.792;2023-07-08T07:26:15;8.93;;;6.47;;
2656;SDS011;1338;48.176;11.792;2023-07-08T07:28:43;6.87;;;4.87;;
2656;SDS011;1338;48.176;11.792;2023-07-08T07:31:12;7.47;;;6.10;;
2656;SDS011;1338;48.176;11.792;2023-07-08T07:33:40;6.30;;;5.70;;
2656;SDS011;1338;48.176;11.792;2023-07-08T07:36:09;7.00;;;6.30;;
2656;SDS011;1338;48.176;11.792;2023-07-08T07:38:39;8.20;;;7.23;;
2656;SDS011;1338;48.176;11.792;2023-07-08T07:41:07;6.90;;;6.03;;
2656;SDS011;1338;48.176;11.792;2023-07-08T07:43:39;6.73;;;6.00;;
2656;SDS011;1338;48.176;11.792;2023-07-08T07:46:07;8.07;;;7.10;;
2656;SDS011;1338;48.176;11.792;2023-07-08T07:48:37;8.10;;;6.83;;
2656;SDS011;1338;48.176;11.792;2023-07-08T07:51:06;8.83;;;6.83;;
2656;SDS011;1338;48.176;11.792;2023-07-08T07:53:37;8.33;;;6.43;;
2656;SDS011;1338;48.176;11.792;2023-07-08T07:56:07;7.90;;;7.10;;
2656;SDS011;1338;48.176;11.792;2023-07-08T07:58:37;8.87;;;6.70;;
2656;SDS011;1338;48.176;11.792;2023-07-08T08:01:06;8.17;;;6.50;;
2656;SDS011;1338;48.176;11.792;2023-07-08T08:03:35;7.87;;;7.17;;
2656;SDS011;1338;48.176;11.792;2023-07-08T08:06:04;7.87;;;6.20;;
2656;SDS011;1338;48.176;11.792;2023-07-08T08:08:32;8.40;;;6.33;;
2656;SDS011;1338;48.176;11.792;2023-07-08T08:11:08;6.97;;;6.27;;
2656;SDS011;1338;48.176;11.792;2023-07-08T08:13:36;10.07;;;6.47;;
2656;SDS011;1338;48.176;11.792;2023-07-08T08:16:07;8.30;;;6.47;;
2656;SDS011;1338;48.176;11.792;2023-07-08T08:18:37;8.70;;;7.10;;
2656;SDS011;1338;48.176;11.792;2023-07-08T08:21:07;9.73;;;6.70;;
2656;SDS011;1338;48.176;11.792;2023-07-08T08:23:35;8.33;;;6.73;;
2656;SDS011;1338;48.176;11.792;2023-07-08T08:26:07;8.00;;;7.00;;
2656;SDS011;1338;48.176;11.792;2023-07-08T08:28:36;7.50;;;6.70;;
2656;SDS011;1338;48.176;11.792;2023-07-08T08:31:05;8.57;;;7.67;;
2656;SDS011;1338;48.176;11.792;2023-07-08T08:33:36;7.33;;;6.50;;
2656;SDS011;1338;48.176;11.792;2023-07-08T08:36:07;6.93;;;6.23;;
2656;SDS011;1338;48.176;11.792;2023-07-08T08:38:36;8.87;;;7.47;;
2656;SDS011;1338;48.176;11.792;2023-07-08T08:41:10;8.43;;;6.60;;
2656;SDS011;1338;48.176;11.792;2023-07-08T08:43:41;8.70;;;7.80;;
2656;SDS011;1338;48.176;11.792;2023-07-08T08:46:12;7.60;;;6.83;;
2656;SDS011;1338;48.176;11.792;2023-07-08T08:48:59;8.73;;;7.37;;
2656;SDS011;1338;48.176;11.792;2023-07-08T08:51:32;9.13;;;8.07;;
2656;SDS011;1338;48.176;11.792;2023-07-08T08:54:01;8.03;;;7.07;;
2656;SDS011;1338;48.176;11.792;2023-07-08T08:56:34;8.00;;;7.20;;
2656;SDS011;1338;48.176;11.792;2023-07-08T08:59:15;7.03;;;6.33;;
2656;SDS011;1338;48.176;11.792;2023-07-08T09:01:51;8.40;;;7.10;;
2656;SDS011;1338;48.176;11.792;2023-07-08T09:04:21;7.67;;;6.40;;
2656;SDS011;1338;48.176;11.792;2023-07-08T09:06:57;7.60;;;6.67;;
2656;SDS011;1338;48.176;11.792;2023-07-08T09:09:35;8.13;;;6.73;;
2656;SDS011;1338;48.176;11.792;2023-07-08T09:12:12;8.20;;;7.43;;
2656;SDS011;1338;48.176;11.792;2023-07-08T09:14:45;9.77;;;8.77;;
2656;SDS011;1338;48.176;11.792;2023-07-08T09:17:19;9.87;;;8.43;;
2656;SDS011;1338;48.176;11.792;2023-07-08T09:19:59;7.97;;;6.70;;
2656;SDS011;1338;48.176;11.792;2023-07-08T09:22:34;9.80;;;8.27;;
2656;SDS011;1338;48.176;11.792;2023-07-08T09:25:10;8.80;;;7.90;;
2656;SDS011;1338;48.176;11.792;2023-07-08T09:27:52;7.60;;;6.80;;
2656;SDS011;1338;48.176;11.792;2023-07-08T09:30:22;9.90;;;7.93;;
2656;SDS011;1338;48.176;11.792;2023-07-08T09:32:51;8.50;;;7.17;;
2656;SDS011;1338;48.176;11.792;2023-07-08T09:35:21;7.40;;;6.30;;
2656;SDS011;1338;48.176;11.792;2023-07-08T09:37:52;8.10;;;7.30;;
2656;SDS011;1338;48.176;11.792;2023-07-08T09:40:27;7.43;;;6.73;;
2656;SDS011;1338;48.176;11.792;2023-07-08T09:43:02;8.60;;;7.77;;
2656;SDS011;1338;48.176;11.792;2023-07-08T09:45:40;8.53;;;6.13;;
2656;SDS011;1338;48.176;11.792;2023-07-08T09:48:14;8.47;;;7.57;;
2656;SDS011;1338;48.176;11.792;2023-07-08T09:50:47;9.60;;;7.73;;
2656;SDS011;1338;48.176;11.792;2023-07-08T09:53:16;8.70;;;7.80;;
2656;SDS011;1338;48.176;11.792;2023-07-08T09:55:45;8.23;;;6.90;;
2656;SDS011;1338;48.176;11.792;2023-07-08T09:58:18;7.80;;;7.10;;
2656;SDS011;1338;48.176;11.792;2023-07-08T10:00:52;8.20;;;7.40;;
2656;SDS011;1338;48.176;11.792;2023-07-08T10:03:24;7.67;;;6.70;;
2656;SDS011;1338;48.176;11.792;2023-07-08T10:05:56;6.70;;;6.10;;
2656;SDS011;1338;48.176;11.792;2023-07-08T10:08:28;9.57;;;6.57;;
2656;SDS011;1338;48.176;11.792;2023-07-08T10:11:18;8.00;;;7.03;;
2656;SDS011;1338;48.176;11.792;2023-07-08T10:13:55;7.60;;;6.50;;
2656;SDS011;1338;48.176;11.792;2023-07-08T10:16:31;7.03;;;5.90;;
2656;SDS011;1338;48.176;11.792;2023-07-08T10:19:01;6.33;;;5.80;;
2656;SDS011;1338;48.176;11.792;2023-07-08T10:21:43;7.67;;;6.97;;
2656;SDS011;1338;48.176;11.792;2023-07-08T10:24:22;8.47;;;7.47;;
2656;SDS011;1338;48.176;11.792;2023-07-08T10:27:04;7.10;;;6.40;;
2656;SDS011;1338;48.176;11.792;2023-07-08T10:29:43;8.13;;;6.50;;
2656;SDS011;1338;48.176;11.792;2023-07-08T10:32:18;6.93;;;6.27;;
2656;SDS011;1338;48.176;11.792;2023-07-08T10:34:57;7.80;;;7.00;;
2656;SDS011;1338;48.176;11.792;2023-07-08T10:37:33;8.67;;;6.93;;
2656;SDS011;1338;48.176;11.792;2023-07-08T10:40:13;7.30;;;6.60;;
2656;SDS011;1338;48.176;11.792;2023-07-08T10:43:07;8.13;;;7.33;;
2656;SDS011;1338;48.176;11.792;2023-07-08T10:46:06;7.47;;;6.77;;
2656;SDS011;1338;48.176;11.792;2023-07-08T10:48:49;7.10;;;6.40;;
2656;SDS011;1338;48.176;11.792;2023-07-08T10:51:34;7.67;;;6.87;;
2656;SDS011;1338;48.176;11.792;2023-07-08T10:54:13;7.40;;;6.60;;
2656;SDS011;1338;48.176;11.792;2023-07-08T10:56:54;8.03;;;7.33;;
2656;SDS011;1338;48.176;11.792;2023-07-08T10:59:35;7.17;;;6.43;;
2656;SDS011;1338;48.176;11.792;2023-07-08T11:05:21;7.73;;;6.93;;
2656;SDS011;1338;48.176;11.792;2023-07-08T11:07:58;9.53;;;7.43;;
2656;SDS011;1338;48.176;11.792;2023-07-08T11:10:33;7.30;;;6.57;;
2656;SDS011;1338;48.176;11.792;2023-07-08T11:13:09;8.20;;;7.30;;
2656;SDS011;1338;48.176;11.792;2023-07-08T11:15:43;7.20;;;6.50;;
2656;SDS011;1338;48.176;11.792;2023-07-08T11:18:21;7.70;;;6.90;;
2656;SDS011;1338;48.176;11.792;2023-07-08T11:21:00;8.10;;;7.37;;
2656;SDS011;1338;48.176;11.792;2023-07-08T11:23:32;8.50;;;6.60;;
2656;SDS011;1338;48.176;11.792;2023-07-08T11:26:10;7.23;;;6.60;;
2656;SDS011;1338;48.176;11.792;2023-07-08T11:28:46;6.90;;;6.20;;
2656;SDS011;1338;48.176;11.792;2023-07-08T11:31:18;7.40;;;6.70;;
2656;SDS011;1338;48.176;11.792;2023-07-08T11:33:48;8.47;;;7.07;;
2656;SDS011;1338;48.176;11.792;2023-07-08T11:36:20;6.93;;;6.23;;
2656;SDS011;1338;48.176;11.792;2023-07-08T11:38:50;5.93;;;5.33;;
2656;SDS011;1338;48.176;11.792;2023-07-08T11:41:21;7.47;;;6.30;;
2656;SDS011;1338;48.176;11.792;2023-07-08T11:43:56;7.37;;;5.97;;
2656;SDS011;1338;48.176;11.792;2023-07-08T11:46:26;7.37;;;6.67;;
2656;SDS011;1338;48.176;11.792;2023-07-08T11:48:57;7.73;;;6.70;;
2656;SDS011;1338;48.176;11.792;2023-07-08T11:51:33;7.53;;;6.70;;
2656;SDS011;1338;48.176;11.792;2023-07-08T11:54:11;7.40;;;6.60;;
2656;SDS011;1338;48.176;11.792;2023-07-08T11:56:48;7.40;;;6.60;;
2656;SDS011;1338;48.176;11.792;2023-07-08T11:59:19;7.47;;;6.77;;
2656;SDS011;1338;48.176;11.792;2023-07-08T12:01:52;8.33;;;6.77;;
2656;SDS011;1338;48.176;11.792;2023-07-08T12:04:26;6.60;;;5.90;;
2656;SDS011;1338;48.176;11.792;2023-07-08T12:09:46;8.10;;;6.53;;
2656;SDS011;1338;48.176;11.792;2023-07-08T12:12:23;8.87;;;6.20;;
2656;SDS011;1338;48.176;11.792;2023-07-08T12:14:53;6.77;;;6.17;;
2656;SDS011;1338;48.176;11.792;2023-07-08T12:17:29;7.33;;;6.20;;
2656;SDS011;1338;48.176;11.792;2023-07-08T12:19:58;6.50;;;5.90;;
2656;SDS011;1338;48.176;11.792;2023-07-08T12:22:34;7.03;;;6.33;;
2656;SDS011;1338;48.176;11.792;2023-07-08T12:25:02;7.60;;;6.90;;
2656;SDS011;1338;48.176;11.792;2023-07-08T12:27:37;8.07;;;7.30;;
2656;SDS011;1338;48.176;11.792;2023-07-08T12:30:07;7.37;;;6.67;;
2656;SDS011;1338;48.176;11.792;2023-07-08T12:32:38;6.30;;;5.73;;
2656;SDS011;1338;48.176;11.792;2023-07-08T12:35:08;6.70;;;6.10;;
2656;SDS011;1338;48.176;11.792;2023-07-08T12:37:50;8.33;;;7.53;;
2656;SDS011;1338;48.176;11.792;2023-07-08T12:40:20;6.80;;;5.37;;
2656;SDS011;1338;48.176;11.792;2023-07-08T12:42:49;6.80;;;6.10;;
2656;SDS011;1338;48.176;11.792;2023-07-08T12:45:19;5.77;;;5.27;;
2656;SDS011;1338;48.176;11.792;2023-07-08T12:47:49;6.47;;;5.57;;
2656;SDS011;1338;48.176;11.792;2023-07-08T12:50:21;6.93;;;6.00;;
2656;SDS011;1338;48.176;11.792;2023-07-08T12:52:52;5.50;;;5.00;;
2656;SDS011;1338;48.176;11.792;2023-07-08T12:55:20;5.50;;;5.00;;
2656;SDS011;1338;48.176;11.792;2023-07-08T12:57:50;6.33;;;5.33;;
2656;SDS011;1338;48.176;11.792;2023-07-08T13:00:21;5.53;;;4.90;;
2656;SDS011;1338;48.176;11.792;2023-07-08T13:02:58;6.03;;;5.43;;
2656;SDS011;1338;48.176;11.792;2023-07-08T13:05:31;6.30;;;5.60;;
2656;SDS011;1338;48.176;11.792;2023-07-08T13:08:01;5.80;;;5.30;;
2656;SDS011;1338;48.176;11.792;2023-07-08T13:10:31;7.53;;;6.83;;
2656;SDS011;1338;48.176;11.792;2023-07-08T13:13:03;6.47;;;5.87;;
2656;SDS011;1338;48.176;11.792;2023-07-08T13:15:36;5.57;;;5.07;;
2656;SDS011;1338;48.176;11.792;2023-07-08T13:18:08;6.00;;;5.47;;
2656;SDS011;1338;48.176;11.792;2023-07-08T13:20:42;6.63;;;5.40;;
2656;SDS011;1338;48.176;11.792;2023-07-08T13:23:13;6.03;;;5.43;;
2656;SDS011;1338;48.176;11.792;2023-07-08T13:25:42;5.97;;;5.37;;
2656;SDS011;1338;48.176;11.792;2023-07-08T13:28:17;6.47;;;5.87;;
2656;SDS011;1338;48.176;11.792;2023-07-08T13:30:50;6.60;;;6.00;;
2656;SDS011;1338;48.176;11.792;2023-07-08T13:33:20;6.43;;;5.83;;
2656;SDS011;1338;48.176;11.792;2023-07-08T13:35:50;5.97;;;5.37;;
2656;SDS011;1338;48.176;11.792;2023-07-08T13:38:23;6.40;;;5.80;;
2656;SDS011;1338;48.176;11.792;2023-07-08T13:40:55;6.27;;;5.67;;
2656;SDS011;1338;48.176;11.792;2023-07-08T13:43:27;6.30;;;5.50;;
2656;SDS011;1338;48.176;11.792;2023-07-08T13:45:57;5.40;;;4.90;;
2656;SDS011;1338;48.176;11.792;2023-07-08T13:48:28;5.40;;;4.90;;
2656;SDS011;1338;48.176;11.792;2023-07-08T13:51:00;6.27;;;5.67;;
2656;SDS011;1338;48.176;11.792;2023-07-08T13:53:42;5.13;;;4.63;;
2656;SDS011;1338;48.176;11.792;2023-07-08T13:56:13;5.57;;;5.03;;
2656;SDS011;1338;48.176;11.792;2023-07-08T13:58:47;6.10;;;5.20;;
2656;SDS011;1338;48.176;11.792;2023-07-08T14:01:18;5.83;;;5.23;;
2656;SDS011;1338;48.176;11.792;2023-07-08T14:03:48;5.57;;;4.97;;
2656;SDS011;1338;48.176;11.792;2023-07-08T14:06:19;5.50;;;5.00;;
2656;SDS011;1338;48.176;11.792;2023-07-08T14:08:53;5.30;;;4.63;;
2656;SDS011;1338;48.176;11.792;2023-07-08T14:11:24;5.30;;;4.80;;
2656;SDS011;1338;48.176;11.792;2023-07-08T14:13:52;5.60;;;5.10;;
2656;SDS011;1338;48.176;11.792;2023-07-08T14:16:23;6.83;;;4.80;;
2656;SDS011;1338;48.176;11.792;2023-07-08T14:18:54;5.77;;;4.70;;
2656;SDS011;1338;48.176;11.792;2023-07-08T14:21:22;6.00;;;5.40;;
2656;SDS011;1338;48.176;11.792;2023-07-08T14:23:53;5.33;;;4.67;;
2656;SDS011;1338;48.176;11.792;2023-07-08T14:26:22;5.07;;;4.57;;
2656;SDS011;1338;48.176;11.792;2023-07-08T14:28:50;5.43;;;4.70;;
2656;SDS011;1338;48.176;11.792;2023-07-08T14:31:19;4.70;;;4.20;;
2656;SDS011;1338;48.176;11.792;2023-07-08T14:33:49;5.40;;;4.93;;
2656;SDS011;1338;48.176;11.792;2023-07-08T14:36:22;6.17;;;4.80;;
2656;SDS011;1338;48.176;11.792;2023-07-08T14:38:50;6.07;;;5.47;;
2656;SDS011;1338;48.176;11.792;2023-07-08T14:41:20;5.93;;;5.30;;
2656;SDS011;1338;48.176;11.792;2023-07-08T14:43:50;5.47;;;4.97;;
2656;SDS011;1338;48.176;11.792;2023-07-08T14:46:19;5.30;;;4.80;;
2656;SDS011;1338;48.176;11.792;2023-07-08T14:48:48;6.00;;;5.00;;
2656;SDS011;1338;48.176;11.792;2023-07-08T14:51:16;5.03;;;4.63;;
2656;SDS011;1338;48.176;11.792;2023-07-08T14:53:44;5.00;;;4.50;;
2656;SDS011;1338;48.176;11.792;2023-07-08T14:56:14;5.33;;;4.83;;
2656;SDS011;1338;48.176;11.792;2023-07-08T14:58:46;4.70;;;4.30;;
2656;SDS011;1338;48.176;11.792;2023-07-08T15:01:17;4.87;;;4.37;;
2656;SDS011;1338;48.176;11.792;2023-07-08T15:03:47;5.87;;;4.17;;
2656;SDS011;1338;48.176;11.792;2023-07-08T15:06:16;5.40;;;4.90;;
2656;SDS011;1338;48.176;11.792;2023-07-08T15:08:44;5.50;;;5.00;;
2656;SDS011;1338;48.176;11.792;2023-07-08T15:11:14;6.33;;;4.70;;
2656;SDS011;1338;48.176;11.792;2023-07-08T15:13:46;4.87;;;4.47;;
2656;SDS011;1338;48.176;11.792;2023-07-08T15:16:16;6.90;;;5.20;;
2656;SDS011;1338;48.176;11.792;2023-07-08T15:18:46;5.17;;;4.77;;
2656;SDS011;1338;48.176;11.792;2023-07-08T15:21:15;5.30;;;4.80;;
2656;SDS011;1338;48.176;11.792;2023-07-08T15:23:44;5.90;;;5.40;;
2656;SDS011;1338;48.176;11.792;2023-07-08T15:26:12;6.70;;;5.50;;
2656;SDS011;1338;48.176;11.792;2023-07-08T15:28:42;5.30;;;4.80;;
2656;SDS011;1338;48.176;11.792;2023-07-08T15:31:16;5.77;;;5.17;;